createdAt,value
2023-01-23T00:00:09.993Z,27.1840
2023-01-23T00:00:21.521Z,27.1890
2023-01-23T00:00:32.749Z,27.2100
2023-01-23T00:00:43.913Z,27.2260
2023-01-23T00:00:55.113Z,27.2420
2023-01-23T00:01:06.338Z,27.2680
2023-01-23T00:01:17.515Z,27.2840
2023-01-23T00:01:28.719Z,27.2840
2023-01-23T00:01:39.753Z,27.2770
2023-01-23T00:01:50.800Z,27.2460
2023-01-23T00:02:01.994Z,27.2350
2023-01-23T00:02:13.215Z,27.2020
2023-01-23T00:02:24.441Z,27.1860
2023-01-23T00:02:35.639Z,27.1860
2023-01-23T00:02:46.852Z,27.1810
2023-01-23T00:02:57.992Z,27.1860
2023-01-23T00:03:09.204Z,27.1760
2023-01-23T00:03:20.391Z,27.1810
2023-01-23T00:03:31.599Z,27.1920
2023-01-23T00:03:42.677Z,27.2020
2023-01-23T00:03:53.783Z,27.2130
2023-01-23T00:04:04.944Z,27.2190
2023-01-23T00:04:16.103Z,27.2540
2023-01-23T00:04:27.381Z,27.2710
2023-01-23T00:04:38.481Z,27.2710
2023-01-23T00:04:49.700Z,27.2600
2023-01-23T00:05:00.878Z,27.2660
2023-01-23T00:05:12.080Z,27.2710
2023-01-23T00:05:23.282Z,27.2710
2023-01-23T00:05:34.475Z,27.2660
2023-01-23T00:05:45.523Z,27.2710
2023-01-23T00:05:56.563Z,27.2810
2023-01-23T00:06:07.783Z,27.2770
2023-01-23T00:06:18.953Z,27.2770
2023-01-23T00:06:30.156Z,27.2720
2023-01-23T00:06:41.392Z,27.2770
2023-01-23T00:06:52.672Z,27.2770
2023-01-23T00:07:03.756Z,27.2830
2023-01-23T00:07:14.797Z,27.2620
2023-01-23T00:07:25.833Z,27.2730
2023-01-23T00:07:37.051Z,27.2730
2023-01-23T00:07:48.236Z,27.2840
2023-01-23T00:07:59.440Z,27.2830
2023-01-23T00:08:10.637Z,27.2830
2023-01-23T00:08:21.842Z,27.2720
2023-01-23T00:08:33.036Z,27.2730
2023-01-23T00:08:44.260Z,27.2880
2023-01-23T00:08:55.433Z,27.2830
2023-01-23T00:09:06.632Z,27.2960
2023-01-23T00:09:17.835Z,27.3090
2023-01-23T00:09:28.875Z,27.3280
2023-01-23T00:09:39.983Z,27.3060
2023-01-23T00:09:51.114Z,27.3170
2023-01-23T00:10:02.331Z,27.3120
2023-01-23T00:10:13.516Z,27.3170
2023-01-23T00:10:24.714Z,27.3010
2023-01-23T00:10:35.919Z,27.3120
2023-01-23T00:10:47.113Z,27.3010
2023-01-23T00:10:58.313Z,27.3120
2023-01-23T00:11:09.641Z,27.3430
2023-01-23T00:11:20.712Z,27.3650
2023-01-23T00:11:31.756Z,27.3700
2023-01-23T00:11:42.805Z,27.3700
2023-01-23T00:11:53.993Z,27.3700
2023-01-23T00:12:05.194Z,27.3960
2023-01-23T00:12:16.413Z,27.4140
2023-01-23T00:12:27.599Z,27.4140
2023-01-23T00:12:38.802Z,27.4190
2023-01-23T00:12:49.999Z,27.4110
2023-01-23T00:13:01.040Z,27.4320
2023-01-23T00:13:12.073Z,27.4110
2023-01-23T00:13:23.276Z,27.4110
2023-01-23T00:13:34.472Z,27.4110
2023-01-23T00:13:45.674Z,27.4370
2023-01-23T00:13:56.723Z,27.4490
2023-01-23T00:14:07.763Z,27.4220
2023-01-23T00:14:18.956Z,27.4060
2023-01-23T00:14:30.163Z,27.4000
2023-01-23T00:14:41.359Z,27.4060
2023-01-23T00:14:52.561Z,27.4060
2023-01-23T00:15:05.948Z,27.4080
2023-01-23T00:15:17.833Z,27.4700
2023-01-23T00:15:29.075Z,27.4630
2023-01-23T00:15:40.145Z,27.4520
2023-01-23T00:15:51.225Z,27.4440
2023-01-23T00:16:02.403Z,27.4370
2023-01-23T00:16:13.593Z,27.4490
2023-01-23T00:16:24.721Z,27.4320
2023-01-23T00:16:35.919Z,27.4270
2023-01-23T00:16:47.121Z,27.4220
2023-01-23T00:16:58.321Z,27.4270
2023-01-23T00:17:09.385Z,27.4370
2023-01-23T00:17:20.452Z,27.4700
2023-01-23T00:17:31.598Z,27.4760
2023-01-23T00:17:42.794Z,27.4860
2023-01-23T00:17:53.993Z,27.4970
2023-01-23T00:18:05.201Z,27.5020
2023-01-23T00:18:16.404Z,27.5210
2023-01-23T00:18:27.593Z,27.5150
2023-01-23T00:18:38.793Z,27.5080
2023-01-23T00:18:50.010Z,27.5180
2023-01-23T00:19:01.192Z,27.5080
2023-01-23T00:19:12.232Z,27.5020
2023-01-23T00:19:23.303Z,27.5040
2023-01-23T00:19:34.503Z,27.5150
2023-01-23T00:19:45.674Z,27.5310
2023-01-23T00:19:56.872Z,27.5340
2023-01-23T00:20:08.073Z,27.5230
2023-01-23T00:20:19.579Z,27.5180
2023-01-23T00:20:30.834Z,27.5390
2023-01-23T00:20:41.993Z,27.5390
2023-01-23T00:20:53.192Z,27.5390
2023-01-23T00:21:04.391Z,27.5470
2023-01-23T00:21:15.612Z,27.5520
2023-01-23T00:21:26.795Z,27.5520
2023-01-23T00:21:37.991Z,27.5630
2023-01-23T00:21:49.037Z,27.5580
2023-01-23T00:22:00.202Z,27.5580
2023-01-23T00:22:13.503Z,27.5520
2023-01-23T00:22:25.395Z,27.6200
2023-01-23T00:22:36.558Z,27.5920
2023-01-23T00:22:47.624Z,27.5780
2023-01-23T00:22:58.715Z,27.5720
2023-01-23T00:23:09.742Z,27.5720
2023-01-23T00:23:20.803Z,27.5630
2023-01-23T00:23:31.865Z,27.5740
2023-01-23T00:23:42.928Z,27.5840
2023-01-23T00:23:53.993Z,27.5790
2023-01-23T00:24:05.210Z,27.5790
2023-01-23T00:24:16.402Z,27.5780
2023-01-23T00:24:27.593Z,27.5830
2023-01-23T00:24:38.801Z,27.5880
2023-01-23T00:24:49.832Z,27.5830
2023-01-23T00:25:00.874Z,27.5830
2023-01-23T00:25:12.072Z,27.5880
2023-01-23T00:25:23.275Z,27.5880
2023-01-23T00:25:34.473Z,27.5990
2023-01-23T00:25:45.673Z,27.5990
2023-01-23T00:25:56.874Z,27.5880
2023-01-23T00:26:08.079Z,27.5670
2023-01-23T00:26:19.303Z,27.5670
2023-01-23T00:26:30.473Z,27.5720
2023-01-23T00:26:41.681Z,27.5840
2023-01-23T00:26:52.879Z,27.5740
2023-01-23T00:27:04.072Z,27.5690
2023-01-23T00:27:15.136Z,27.5900
2023-01-23T00:27:26.205Z,27.5840
2023-01-23T00:27:37.372Z,27.6110
2023-01-23T00:27:48.559Z,27.6280
2023-01-23T00:27:59.756Z,27.6440
2023-01-23T00:28:10.955Z,27.6440
2023-01-23T00:28:22.154Z,27.6490
2023-01-23T00:28:33.365Z,27.6600
2023-01-23T00:28:44.443Z,27.6760
2023-01-23T00:28:55.508Z,27.6760
2023-01-23T00:29:06.632Z,27.6600
2023-01-23T00:29:17.834Z,27.6550
2023-01-23T00:29:29.046Z,27.6440
2023-01-23T00:29:40.235Z,27.6470
2023-01-23T00:29:51.433Z,27.6490
2023-01-23T00:30:02.638Z,27.6650
2023-01-23T00:30:13.850Z,27.6440
2023-01-23T00:30:25.032Z,27.6490
2023-01-23T00:30:36.273Z,27.6550
2023-01-23T00:30:47.442Z,27.6650
2023-01-23T00:30:58.619Z,27.6600
2023-01-23T00:31:09.942Z,27.6550
2023-01-23T00:31:21.198Z,27.6550
2023-01-23T00:31:32.512Z,27.6550
2023-01-23T00:31:43.958Z,27.6600
2023-01-23T00:31:55.354Z,27.6810
2023-01-23T00:32:06.494Z,27.6760
2023-01-23T00:32:17.672Z,27.6920
2023-01-23T00:32:28.876Z,27.7080
2023-01-23T00:32:40.073Z,27.7130
2023-01-23T00:32:51.274Z,27.7290
2023-01-23T00:33:02.510Z,27.7130
2023-01-23T00:33:13.680Z,27.6970
2023-01-23T00:33:24.713Z,27.6810
2023-01-23T00:33:35.773Z,27.6970
2023-01-23T00:33:46.823Z,27.7020
2023-01-23T00:33:57.884Z,27.6920
2023-01-23T00:34:09.038Z,27.6810
2023-01-23T00:34:20.235Z,27.6760
2023-01-23T00:34:31.443Z,27.6810
2023-01-23T00:34:42.639Z,27.6870
2023-01-23T00:34:53.834Z,27.6920
2023-01-23T00:35:05.037Z,27.7180
2023-01-23T00:35:16.233Z,27.7290
2023-01-23T00:35:27.433Z,27.7020
2023-01-23T00:35:38.508Z,27.7080
2023-01-23T00:35:49.533Z,27.6970
2023-01-23T00:36:00.729Z,27.7080
2023-01-23T00:36:11.921Z,27.6970
2023-01-23T00:36:23.157Z,27.7000
2023-01-23T00:36:34.334Z,27.7050
2023-01-23T00:36:45.382Z,27.7000
2023-01-23T00:36:56.439Z,27.6830
2023-01-23T00:37:07.711Z,27.6720
2023-01-23T00:37:18.793Z,27.6610
2023-01-23T00:37:29.995Z,27.6830
2023-01-23T00:37:41.203Z,27.6720
2023-01-23T00:37:52.430Z,27.6720
2023-01-23T00:38:03.630Z,27.6880
2023-01-23T00:38:14.897Z,27.7050
2023-01-23T00:38:25.995Z,27.7100
2023-01-23T00:38:37.193Z,27.7050
2023-01-23T00:38:48.399Z,27.7050
2023-01-23T00:38:59.603Z,27.7050
2023-01-23T00:39:10.799Z,27.6830
2023-01-23T00:39:22.016Z,27.6830
2023-01-23T00:39:33.197Z,27.6610
2023-01-23T00:39:44.394Z,27.6770
2023-01-23T00:39:55.450Z,27.7000
2023-01-23T00:40:06.537Z,27.6930
2023-01-23T00:40:18.033Z,27.7100
2023-01-23T00:40:29.233Z,27.7160
2023-01-23T00:40:40.393Z,27.7000
2023-01-23T00:40:51.592Z,27.6830
2023-01-23T00:41:02.797Z,27.6720
2023-01-23T00:41:13.913Z,27.6770
2023-01-23T00:41:25.022Z,27.7000
2023-01-23T00:41:36.098Z,27.7260
2023-01-23T00:41:47.285Z,27.7210
2023-01-23T00:41:58.325Z,27.7160
2023-01-23T00:42:09.395Z,27.7210
2023-01-23T00:42:20.581Z,27.7050
2023-01-23T00:42:31.767Z,27.7260
2023-01-23T00:42:42.956Z,27.7260
2023-01-23T00:42:54.154Z,27.7310
2023-01-23T00:43:05.353Z,27.7370
2023-01-23T00:43:16.553Z,27.7310
2023-01-23T00:43:27.767Z,27.7470
2023-01-23T00:43:38.954Z,27.7370
2023-01-23T00:43:50.155Z,27.7370
2023-01-23T00:44:01.194Z,27.7260
2023-01-23T00:44:12.233Z,27.7260
2023-01-23T00:44:23.433Z,27.7160
2023-01-23T00:44:34.641Z,27.7100
2023-01-23T00:44:45.735Z,27.7370
2023-01-23T00:44:56.795Z,27.7420
2023-01-23T00:45:07.859Z,27.7420
2023-01-23T00:45:18.925Z,27.7420
2023-01-23T00:45:30.026Z,27.7470
2023-01-23T00:45:41.196Z,27.7530
2023-01-23T00:45:52.392Z,27.7470
2023-01-23T00:46:03.678Z,27.7470
2023-01-23T00:46:14.739Z,27.7580
2023-01-23T00:46:25.846Z,27.7420
2023-01-23T00:46:36.912Z,27.7210
2023-01-23T00:46:48.184Z,27.7310
2023-01-23T00:46:59.272Z,27.7210
2023-01-23T00:47:10.473Z,27.7310
2023-01-23T00:47:21.676Z,27.7260
2023-01-23T00:47:32.873Z,27.7310
2023-01-23T00:47:44.080Z,27.7530
2023-01-23T00:47:55.280Z,27.7530
2023-01-23T00:48:06.500Z,27.7420
2023-01-23T00:48:17.593Z,27.7630
2023-01-23T00:48:28.686Z,27.7580
2023-01-23T00:48:39.754Z,27.7740
2023-01-23T00:48:50.983Z,27.7790
2023-01-23T00:49:02.153Z,27.7740
2023-01-23T00:49:13.365Z,27.7740
2023-01-23T00:49:24.814Z,27.7740
2023-01-23T00:49:36.114Z,27.7690
2023-01-23T00:49:47.272Z,27.7530
2023-01-23T00:49:58.473Z,27.7630
2023-01-23T00:50:09.542Z,27.7530
2023-01-23T00:50:20.953Z,27.7420
2023-01-23T00:50:32.442Z,27.7690
2023-01-23T00:50:43.594Z,27.7580
2023-01-23T00:50:54.870Z,27.7790
2023-01-23T00:51:06.044Z,27.7630
2023-01-23T00:51:17.253Z,27.7630
2023-01-23T00:51:28.430Z,27.7630
2023-01-23T00:51:39.604Z,27.7790
2023-01-23T00:51:50.801Z,27.7580
2023-01-23T00:52:01.999Z,27.7740
2023-01-23T00:52:13.310Z,27.7580
2023-01-23T00:52:24.393Z,27.7690
2023-01-23T00:52:35.600Z,27.7790
2023-01-23T00:52:46.795Z,27.7630
2023-01-23T00:52:57.843Z,27.7580
2023-01-23T00:53:08.882Z,27.7530
2023-01-23T00:53:19.922Z,27.7470
2023-01-23T00:53:30.985Z,27.7580
2023-01-23T00:53:42.179Z,27.7630
2023-01-23T00:53:53.361Z,27.7580
2023-01-23T00:54:04.559Z,27.7470
2023-01-23T00:54:15.594Z,27.7630
2023-01-23T00:54:26.637Z,27.7850
2023-01-23T00:54:37.833Z,27.7790
2023-01-23T00:54:49.034Z,27.7530
2023-01-23T00:55:00.235Z,27.7310
2023-01-23T00:55:11.435Z,27.7580
2023-01-23T00:55:22.638Z,27.7740
2023-01-23T00:55:33.833Z,27.7740
2023-01-23T00:55:45.038Z,27.7690
2023-01-23T00:55:56.243Z,27.7630
2023-01-23T00:56:07.451Z,27.7630
2023-01-23T00:56:18.523Z,27.7630
2023-01-23T00:56:29.594Z,27.7530
2023-01-23T00:56:40.729Z,27.7310
2023-01-23T00:56:51.914Z,27.7470
2023-01-23T00:57:03.118Z,27.7580
2023-01-23T00:57:14.317Z,27.7690
2023-01-23T00:57:25.513Z,27.7850
2023-01-23T00:57:36.719Z,27.8060
2023-01-23T00:57:47.920Z,27.8060
2023-01-23T00:57:59.113Z,27.8230
2023-01-23T00:58:10.323Z,27.8230
2023-01-23T00:58:21.375Z,27.7850
2023-01-23T00:58:32.445Z,27.7690
2023-01-23T00:58:45.158Z,27.7850
2023-01-23T00:58:56.433Z,27.8280
2023-01-23T00:59:07.474Z,27.8230
2023-01-23T00:59:18.525Z,27.8230
2023-01-23T00:59:29.578Z,27.8230
2023-01-23T00:59:40.635Z,27.8060
2023-01-23T00:59:51.753Z,27.8010
2023-01-23T01:00:02.959Z,27.7950
2023-01-23T01:00:14.159Z,27.8120
2023-01-23T01:00:25.225Z,27.8180
2023-01-23T01:00:36.299Z,27.8180
2023-01-23T01:00:47.433Z,27.7900
2023-01-23T01:00:58.635Z,27.7900
2023-01-23T01:01:09.679Z,27.8060
2023-01-23T01:01:20.743Z,27.8010
2023-01-23T01:01:31.801Z,27.7850
2023-01-23T01:01:42.944Z,27.7580
2023-01-23T01:01:54.105Z,27.7530
2023-01-23T01:02:05.193Z,27.7580
2023-01-23T01:02:16.402Z,27.7470
2023-01-23T01:02:27.694Z,27.7470
2023-01-23T01:02:38.811Z,27.7630
2023-01-23T01:02:50.029Z,27.7740
2023-01-23T01:03:01.230Z,27.7790
2023-01-23T01:03:12.521Z,27.7950
2023-01-23T01:03:23.594Z,27.7850
2023-01-23T01:03:34.791Z,27.7900
2023-01-23T01:03:45.839Z,27.8060
2023-01-23T01:03:56.913Z,27.8180
2023-01-23T01:04:08.072Z,27.8120
2023-01-23T01:04:19.289Z,27.7950
2023-01-23T01:04:30.480Z,27.7950
2023-01-23T01:04:41.677Z,27.7900
2023-01-23T01:04:52.876Z,27.8180
2023-01-23T01:05:04.094Z,27.8230
2023-01-23T01:05:15.283Z,27.8230
2023-01-23T01:05:26.474Z,27.8180
2023-01-23T01:05:37.679Z,27.8230
2023-01-23T01:05:48.872Z,27.8280
2023-01-23T01:06:00.123Z,27.8230
2023-01-23T01:06:11.272Z,27.8390
2023-01-23T01:06:22.488Z,27.8230
2023-01-23T01:06:33.706Z,27.8120
2023-01-23T01:06:44.760Z,27.7900
2023-01-23T01:06:55.813Z,27.7950
2023-01-23T01:07:06.955Z,27.8120
2023-01-23T01:07:18.273Z,27.8010
2023-01-23T01:07:29.360Z,27.7900
2023-01-23T01:07:40.564Z,27.7850
2023-01-23T01:07:51.759Z,27.7850
2023-01-23T01:08:02.959Z,27.8010
2023-01-23T01:08:14.161Z,27.8010
2023-01-23T01:08:25.353Z,27.8120
2023-01-23T01:08:36.563Z,27.8180
2023-01-23T01:08:47.599Z,27.8180
2023-01-23T01:08:58.641Z,27.8060
2023-01-23T01:09:09.838Z,27.8180
2023-01-23T01:09:21.031Z,27.8180
2023-01-23T01:09:32.239Z,27.8230
2023-01-23T01:09:43.439Z,27.8060
2023-01-23T01:09:54.640Z,27.8060
2023-01-23T01:10:05.842Z,27.8120
2023-01-23T01:10:17.362Z,27.8180
2023-01-23T01:10:28.586Z,27.8230
2023-01-23T01:10:39.752Z,27.8230
2023-01-23T01:10:50.953Z,27.8280
2023-01-23T01:11:02.174Z,27.8390
2023-01-23T01:11:13.356Z,27.8330
2023-01-23T01:11:24.554Z,27.8330
2023-01-23T01:11:35.790Z,27.8280
2023-01-23T01:11:46.837Z,27.8440
2023-01-23T01:11:57.904Z,27.8230
2023-01-23T01:12:09.036Z,27.8230
2023-01-23T01:12:20.245Z,27.8280
2023-01-23T01:12:31.439Z,27.8330
2023-01-23T01:12:42.543Z,27.8390
2023-01-23T01:12:53.618Z,27.8550
2023-01-23T01:13:04.712Z,27.8440
2023-01-23T01:13:15.754Z,27.8180
2023-01-23T01:13:26.799Z,27.8060
2023-01-23T01:13:37.999Z,27.8140
2023-01-23T01:13:49.192Z,27.8230
2023-01-23T01:14:00.241Z,27.8330
2023-01-23T01:14:11.283Z,27.8330
2023-01-23T01:14:22.478Z,27.8390
2023-01-23T01:14:33.678Z,27.8550
2023-01-23T01:14:44.876Z,27.8710
2023-01-23T01:14:56.074Z,27.8710
2023-01-23T01:15:07.280Z,27.8760
2023-01-23T01:15:18.481Z,27.8710
2023-01-23T01:15:29.681Z,27.8600
2023-01-23T01:15:40.877Z,27.8500
2023-01-23T01:15:52.169Z,27.8550
2023-01-23T01:16:03.370Z,27.8600
2023-01-23T01:16:14.534Z,27.8440
2023-01-23T01:16:25.767Z,27.8500
2023-01-23T01:16:36.915Z,27.8330
2023-01-23T01:16:48.014Z,27.8280
2023-01-23T01:16:59.084Z,27.8280
2023-01-23T01:17:10.154Z,27.8280
2023-01-23T01:17:21.378Z,27.8180
2023-01-23T01:17:32.553Z,27.8120
2023-01-23T01:17:43.759Z,27.8180
2023-01-23T01:17:54.963Z,27.8230
2023-01-23T01:18:06.157Z,27.8390
2023-01-23T01:18:17.356Z,27.8230
2023-01-23T01:18:28.553Z,27.8060
2023-01-23T01:18:39.754Z,27.7950
2023-01-23T01:18:50.969Z,27.8060
2023-01-23T01:19:02.153Z,27.8060
2023-01-23T01:19:13.355Z,27.8280
2023-01-23T01:19:24.556Z,27.8330
2023-01-23T01:19:35.752Z,27.8230
2023-01-23T01:19:46.965Z,27.8120
2023-01-23T01:19:58.159Z,27.8180
2023-01-23T01:20:09.193Z,27.8240
2023-01-23T01:20:20.492Z,27.8010
2023-01-23T01:20:31.798Z,27.8010
2023-01-23T01:20:42.953Z,27.7900
2023-01-23T01:20:54.155Z,27.7980
2023-01-23T01:21:05.353Z,27.8080
2023-01-23T01:21:16.554Z,27.8140
2023-01-23T01:21:27.762Z,27.8190
2023-01-23T01:21:38.834Z,27.8190
2023-01-23T01:21:49.912Z,27.8240
2023-01-23T01:22:01.035Z,27.8080
2023-01-23T01:22:12.077Z,27.8030
2023-01-23T01:22:23.245Z,27.8300
2023-01-23T01:22:34.316Z,27.8350
2023-01-23T01:22:45.512Z,27.8460
2023-01-23T01:22:56.729Z,27.8670
2023-01-23T01:23:07.920Z,27.8560
2023-01-23T01:23:19.112Z,27.8670
2023-01-23T01:23:30.314Z,27.8670
2023-01-23T01:23:41.513Z,27.8650
2023-01-23T01:23:52.727Z,27.8600
2023-01-23T01:24:03.918Z,27.8550
2023-01-23T01:24:14.987Z,27.8600
2023-01-23T01:24:26.052Z,27.8550
2023-01-23T01:24:37.200Z,27.8440
2023-01-23T01:24:48.392Z,27.8440
2023-01-23T01:24:59.593Z,27.8600
2023-01-23T01:25:10.794Z,27.8710
2023-01-23T01:25:21.834Z,27.8710
2023-01-23T01:25:32.888Z,27.8650
2023-01-23T01:25:44.072Z,27.8710
2023-01-23T01:25:55.278Z,27.8650
2023-01-23T01:26:06.476Z,27.8650
2023-01-23T01:26:17.679Z,27.8710
2023-01-23T01:26:28.762Z,27.8600
2023-01-23T01:26:39.840Z,27.8710
2023-01-23T01:26:50.953Z,27.8760
2023-01-23T01:27:02.158Z,27.8600
2023-01-23T01:27:13.353Z,27.8710
2023-01-23T01:27:24.563Z,27.8710
2023-01-23T01:27:35.752Z,27.8500
2023-01-23T01:27:46.803Z,27.8550
2023-01-23T01:27:57.846Z,27.8330
2023-01-23T01:28:09.041Z,27.8330
2023-01-23T01:28:20.232Z,27.8230
2023-01-23T01:28:31.449Z,27.8280
2023-01-23T01:28:42.634Z,27.8440
2023-01-23T01:28:53.853Z,27.8550
2023-01-23T01:29:04.906Z,27.8600
2023-01-23T01:29:15.933Z,27.8650
2023-01-23T01:29:27.123Z,27.8550
2023-01-23T01:29:38.325Z,27.8500
2023-01-23T01:29:49.511Z,27.8500
2023-01-23T01:30:00.710Z,27.8550
2023-01-23T01:30:11.922Z,27.8500
2023-01-23T01:30:23.225Z,27.8500
2023-01-23T01:30:34.314Z,27.8440
2023-01-23T01:30:45.620Z,27.8330
2023-01-23T01:30:56.823Z,27.8230
2023-01-23T01:31:08.215Z,27.8180
2023-01-23T01:31:19.592Z,27.8060
2023-01-23T01:31:30.742Z,27.8230
2023-01-23T01:31:41.868Z,27.8300
2023-01-23T01:31:53.182Z,27.8400
2023-01-23T01:32:04.273Z,27.8560
2023-01-23T01:32:15.433Z,27.8400
2023-01-23T01:32:26.636Z,27.8460
2023-01-23T01:32:37.846Z,27.8510
2023-01-23T01:32:49.045Z,27.8560
2023-01-23T01:33:00.234Z,27.8620
2023-01-23T01:33:11.434Z,27.8670
2023-01-23T01:33:22.639Z,27.8770
2023-01-23T01:33:33.852Z,27.8950
2023-01-23T01:33:44.917Z,27.8890
2023-01-23T01:33:55.963Z,27.8950
2023-01-23T01:34:07.005Z,27.8840
2023-01-23T01:34:18.077Z,27.8770
2023-01-23T01:34:29.199Z,27.8720
2023-01-23T01:34:40.393Z,27.8670
2023-01-23T01:34:51.437Z,27.8670
2023-01-23T01:35:02.522Z,27.8620
2023-01-23T01:35:13.677Z,27.8510
2023-01-23T01:35:24.875Z,27.8460
2023-01-23T01:35:36.073Z,27.8560
2023-01-23T01:35:47.279Z,27.8670
2023-01-23T01:35:58.352Z,27.8720
2023-01-23T01:36:09.393Z,27.8560
2023-01-23T01:36:20.544Z,27.8460
2023-01-23T01:36:31.759Z,27.8560
2023-01-23T01:36:42.999Z,27.8560
2023-01-23T01:36:54.153Z,27.8510
2023-01-23T01:37:05.359Z,27.8620
2023-01-23T01:37:16.553Z,27.8510
2023-01-23T01:37:27.878Z,27.8560
2023-01-23T01:37:38.953Z,27.8560
2023-01-23T01:37:50.165Z,27.8620
2023-01-23T01:38:01.215Z,27.8620
2023-01-23T01:38:12.334Z,27.8510
2023-01-23T01:38:23.441Z,27.8460
2023-01-23T01:38:34.638Z,27.8560
2023-01-23T01:38:45.836Z,27.8620
2023-01-23T01:38:57.032Z,27.8510
2023-01-23T01:39:08.238Z,27.8510
2023-01-23T01:39:19.432Z,27.8510
2023-01-23T01:39:30.635Z,27.8460
2023-01-23T01:39:41.850Z,27.8620
2023-01-23T01:39:53.032Z,27.8670
2023-01-23T01:40:04.072Z,27.8840
2023-01-23T01:40:15.124Z,27.8950
2023-01-23T01:40:26.353Z,27.9110
2023-01-23T01:40:37.513Z,27.9270
2023-01-23T01:40:48.720Z,27.9250
2023-01-23T01:40:59.912Z,27.9360
2023-01-23T01:41:11.120Z,27.9250
2023-01-23T01:41:22.312Z,27.9130
2023-01-23T01:41:33.353Z,27.9030
2023-01-23T01:41:44.423Z,27.9030
2023-01-23T01:41:55.604Z,27.9080
2023-01-23T01:42:06.656Z,27.8970
2023-01-23T01:42:17.716Z,27.8870
2023-01-23T01:42:28.874Z,27.8920
2023-01-23T01:42:40.083Z,27.8970
2023-01-23T01:42:51.278Z,27.9030
2023-01-23T01:43:02.484Z,27.9130
2023-01-23T01:43:13.679Z,27.9030
2023-01-23T01:43:24.880Z,27.8950
2023-01-23T01:43:36.078Z,27.8770
2023-01-23T01:43:47.278Z,27.8620
2023-01-23T01:43:58.477Z,27.8720
2023-01-23T01:44:09.679Z,27.8670
2023-01-23T01:44:20.879Z,27.8670
2023-01-23T01:44:32.079Z,27.8620
2023-01-23T01:44:43.272Z,27.8400
2023-01-23T01:44:54.483Z,27.8460
2023-01-23T01:45:05.673Z,27.8510
2023-01-23T01:45:16.723Z,27.8560
2023-01-23T01:45:27.783Z,27.8510
2023-01-23T01:45:38.959Z,27.8460
2023-01-23T01:45:50.154Z,27.8560
2023-01-23T01:46:01.373Z,27.8720
2023-01-23T01:46:12.661Z,27.8670
2023-01-23T01:46:23.810Z,27.8670
2023-01-23T01:46:34.989Z,27.8720
2023-01-23T01:46:46.088Z,27.8950
2023-01-23T01:46:57.214Z,27.8950
2023-01-23T01:47:08.301Z,27.8770
2023-01-23T01:47:19.433Z,27.8720
2023-01-23T01:47:30.632Z,27.8670
2023-01-23T01:47:41.832Z,27.8720
2023-01-23T01:47:53.033Z,27.8840
2023-01-23T01:48:04.236Z,27.8670
2023-01-23T01:48:15.462Z,27.8770
2023-01-23T01:48:26.675Z,27.8670
2023-01-23T01:48:37.836Z,27.8770
2023-01-23T01:48:49.032Z,27.8720
2023-01-23T01:49:00.242Z,27.8890
2023-01-23T01:49:11.431Z,27.8840
2023-01-23T01:49:22.633Z,27.8890
2023-01-23T01:49:33.838Z,27.8840
2023-01-23T01:49:45.034Z,27.8890
2023-01-23T01:49:56.235Z,27.8720
2023-01-23T01:50:07.440Z,27.8840
2023-01-23T01:50:19.060Z,27.8720
2023-01-23T01:50:30.288Z,27.8950
2023-01-23T01:50:41.352Z,27.8840
2023-01-23T01:50:52.603Z,27.8890
2023-01-23T01:51:03.809Z,27.8950
2023-01-23T01:51:15.098Z,27.9110
2023-01-23T01:51:26.176Z,27.9050
2023-01-23T01:51:37.366Z,27.9050
2023-01-23T01:51:48.586Z,27.8890
2023-01-23T01:51:59.752Z,27.8890
2023-01-23T01:52:10.952Z,27.8840
2023-01-23T01:52:22.160Z,27.8890
2023-01-23T01:52:33.476Z,27.9000
2023-01-23T01:52:44.558Z,27.9110
2023-01-23T01:52:55.753Z,27.8840
2023-01-23T01:53:06.953Z,27.8840
2023-01-23T01:53:18.153Z,27.8720
2023-01-23T01:53:29.366Z,27.8890
2023-01-23T01:53:40.555Z,27.9050
2023-01-23T01:53:51.765Z,27.8950
2023-01-23T01:54:02.956Z,27.8890
2023-01-23T01:54:14.153Z,27.8720
2023-01-23T01:54:25.220Z,27.8620
2023-01-23T01:54:36.242Z,27.8720
2023-01-23T01:54:47.433Z,27.8670
2023-01-23T01:54:58.632Z,27.8510
2023-01-23T01:55:09.833Z,27.8720
2023-01-23T01:55:21.032Z,27.8720
2023-01-23T01:55:32.231Z,27.8770
2023-01-23T01:55:43.453Z,27.8890
2023-01-23T01:55:54.633Z,27.8840
2023-01-23T01:56:05.844Z,27.8840
2023-01-23T01:56:17.032Z,27.8840
2023-01-23T01:56:28.239Z,27.8770
2023-01-23T01:56:39.434Z,27.8890
2023-01-23T01:56:50.674Z,27.9050
2023-01-23T01:57:01.831Z,27.9110
2023-01-23T01:57:13.038Z,27.9160
2023-01-23T01:57:24.232Z,27.9160
2023-01-23T01:57:35.433Z,27.9160
2023-01-23T01:57:46.472Z,27.9160
2023-01-23T01:57:57.525Z,27.9160
2023-01-23T01:58:08.718Z,27.9160
2023-01-23T01:58:19.912Z,27.9110
2023-01-23T01:58:31.121Z,27.9210
2023-01-23T01:58:42.314Z,27.9110
2023-01-23T01:58:53.519Z,27.9320
2023-01-23T01:59:04.714Z,27.9370
2023-01-23T01:59:15.913Z,27.9320
2023-01-23T01:59:27.136Z,27.9110
2023-01-23T01:59:38.169Z,27.9110
2023-01-23T01:59:49.191Z,27.9050
2023-01-23T02:00:00.401Z,27.9000
2023-01-23T02:00:11.593Z,27.8890
2023-01-23T02:00:23.099Z,27.8770
2023-01-23T02:00:34.414Z,27.9000
2023-01-23T02:00:45.543Z,27.9210
2023-01-23T02:00:56.770Z,27.9110
2023-01-23T02:01:07.994Z,27.8950
2023-01-23T02:01:19.122Z,27.8840
2023-01-23T02:01:30.314Z,27.8770
2023-01-23T02:01:41.549Z,27.8770
2023-01-23T02:01:52.814Z,27.8840
2023-01-23T02:02:03.886Z,27.8720
2023-01-23T02:02:15.024Z,27.8950
2023-01-23T02:02:26.084Z,27.9160
2023-01-23T02:02:37.192Z,27.9160
2023-01-23T02:02:48.394Z,27.9270
2023-01-23T02:02:59.602Z,27.9270
2023-01-23T02:03:10.807Z,27.9210
2023-01-23T02:03:21.993Z,27.9270
2023-01-23T02:03:33.200Z,27.9210
2023-01-23T02:03:44.392Z,27.9160
2023-01-23T02:03:55.595Z,27.9160
2023-01-23T02:04:06.652Z,27.9160
2023-01-23T02:04:17.726Z,27.9050
2023-01-23T02:04:28.878Z,27.9000
2023-01-23T02:04:40.073Z,27.9050
2023-01-23T02:04:51.283Z,27.9160
2023-01-23T02:05:02.481Z,27.9050
2023-01-23T02:05:13.674Z,27.9110
2023-01-23T02:05:24.877Z,27.9160
2023-01-23T02:05:36.079Z,27.9270
2023-01-23T02:05:47.120Z,27.9270
2023-01-23T02:05:58.165Z,27.9210
2023-01-23T02:06:09.352Z,27.9110
2023-01-23T02:06:20.558Z,27.9110
2023-01-23T02:06:31.752Z,27.9160
2023-01-23T02:06:42.954Z,27.9160
2023-01-23T02:06:54.215Z,27.9160
2023-01-23T02:07:05.354Z,27.9160
2023-01-23T02:07:16.394Z,27.9110
2023-01-23T02:07:27.482Z,27.9110
2023-01-23T02:07:38.757Z,27.9110
2023-01-23T02:07:49.839Z,27.9110
2023-01-23T02:08:01.034Z,27.9160
2023-01-23T02:08:12.243Z,27.9050
2023-01-23T02:08:23.431Z,27.8840
2023-01-23T02:08:34.640Z,27.9000
2023-01-23T02:08:45.837Z,27.9110
2023-01-23T02:08:57.048Z,27.9160
2023-01-23T02:09:08.235Z,27.9050
2023-01-23T02:09:19.439Z,27.9000
2023-01-23T02:09:30.632Z,27.8890
2023-01-23T02:09:41.835Z,27.8840
2023-01-23T02:09:52.875Z,27.8950
2023-01-23T02:10:03.915Z,27.8720
2023-01-23T02:10:14.995Z,27.8770
2023-01-23T02:10:26.053Z,27.8890
2023-01-23T02:10:37.192Z,27.8840
2023-01-23T02:10:48.403Z,27.8950
2023-01-23T02:10:59.433Z,27.8950
2023-01-23T02:11:10.483Z,27.9000
2023-01-23T02:11:21.542Z,27.9160
2023-01-23T02:11:32.601Z,27.9000
2023-01-23T02:11:43.758Z,27.8890
2023-01-23T02:11:55.005Z,27.8950
2023-01-23T02:12:06.073Z,27.9000
2023-01-23T02:12:17.132Z,27.9160
2023-01-23T02:12:28.235Z,27.8950
2023-01-23T02:12:39.444Z,27.8950
2023-01-23T02:12:50.634Z,27.9160
2023-01-23T02:13:01.866Z,27.9050
2023-01-23T02:13:13.032Z,27.9050
2023-01-23T02:13:24.232Z,27.8890
2023-01-23T02:13:35.342Z,27.8840
2023-01-23T02:13:46.416Z,27.8960
2023-01-23T02:13:57.513Z,27.8840
2023-01-23T02:14:08.734Z,27.8910
2023-01-23T02:14:19.753Z,27.8910
2023-01-23T02:14:30.803Z,27.8950
2023-01-23T02:14:42.009Z,27.8890
2023-01-23T02:14:53.199Z,27.9110
2023-01-23T02:15:04.392Z,27.9110
2023-01-23T02:15:15.448Z,27.8950